sensor_id;sensor_type;location;lat;lon;timestamp;P1;durP1;ratioP1;P2;durP2;ratioP2
72464;SDS011;60471;52.150;4.508;2024-02-26T00:02:07;8.95;;;3.20;;
72464;SDS011;60471;52.150;4.508;2024-02-26T00:04:33;7.13;;;2.60;;
72464;SDS011;60471;52.150;4.508;2024-02-26T00:06:59;8.35;;;2.55;;
72464;SDS011;60471;52.150;4.508;2024-02-26T00:09:25;8.52;;;3.17;;
72464;SDS011;60471;52.150;4.508;2024-02-26T00:11:52;6.63;;;2.53;;
72464;SDS011;60471;52.150;4.508;2024-02-26T00:14:18;6.72;;;2.50;;
72464;SDS011;60471;52.150;4.508;2024-02-26T00:16:44;7.18;;;2.70;;
72464;SDS011;60471;52.150;4.508;2024-02-26T00:19:11;10.10;;;3.05;;
72464;SDS011;60471;52.150;4.508;2024-02-26T00:21:40;8.68;;;2.80;;
72464;SDS011;60471;52.150;4.508;2024-02-26T00:24:08;11.43;;;2.80;;
72464;SDS011;60471;52.150;4.508;2024-02-26T00:26:34;8.65;;;2.30;;
72464;SDS011;60471;52.150;4.508;2024-02-26T00:29:00;8.38;;;2.40;;
72464;SDS011;60471;52.150;4.508;2024-02-26T00:31:26;7.82;;;2.38;;
72464;SDS011;60471;52.150;4.508;2024-02-26T00:33:53;8.85;;;2.92;;
72464;SDS011;60471;52.150;4.508;2024-02-26T00:36:19;10.75;;;3.08;;
72464;SDS011;60471;52.150;4.508;2024-02-26T00:38:46;9.00;;;2.70;;
72464;SDS011;60471;52.150;4.508;2024-02-26T00:41:16;7.63;;;2.75;;
72464;SDS011;60471;52.150;4.508;2024-02-26T00:43:44;6.50;;;2.55;;
72464;SDS011;60471;52.150;4.508;2024-02-26T00:46:10;7.82;;;2.50;;
72464;SDS011;60471;52.150;4.508;2024-02-26T00:48:37;7.63;;;2.55;;
72464;SDS011;60471;52.150;4.508;2024-02-26T00:51:03;7.80;;;2.53;;
72464;SDS011;60471;52.150;4.508;2024-02-26T00:53:31;13.82;;;2.83;;
72464;SDS011;60471;52.150;4.508;2024-02-26T00:55:57;10.35;;;3.22;;
72464;SDS011;60471;52.150;4.508;2024-02-26T00:58:27;6.85;;;2.40;;
72464;SDS011;60471;52.150;4.508;2024-02-26T01:00:53;12.50;;;3.13;;
72464;SDS011;60471;52.150;4.508;2024-02-26T01:03:19;8.20;;;2.95;;
72464;SDS011;60471;52.150;4.508;2024-02-26T01:05:46;9.77;;;2.83;;
72464;SDS011;60471;52.150;4.508;2024-02-26T01:08:12;8.70;;;2.90;;
72464;SDS011;60471;52.150;4.508;2024-02-26T01:10:38;10.30;;;2.95;;
72464;SDS011;60471;52.150;4.508;2024-02-26T01:13:04;7.35;;;2.78;;
72464;SDS011;60471;52.150;4.508;2024-02-26T01:15:30;11.32;;;3.22;;
72464;SDS011;60471;52.150;4.508;2024-02-26T01:17:57;9.27;;;3.20;;
72464;SDS011;60471;52.150;4.508;2024-02-26T01:20:24;8.80;;;2.78;;
72464;SDS011;60471;52.150;4.508;2024-02-26T01:22:50;8.45;;;3.05;;
72464;SDS011;60471;52.150;4.508;2024-02-26T01:25:16;10.05;;;3.03;;
72464;SDS011;60471;52.150;4.508;2024-02-26T01:27:42;11.07;;;3.60;;
72464;SDS011;60471;52.150;4.508;2024-02-26T01:30:09;7.68;;;2.90;;
72464;SDS011;60471;52.150;4.508;2024-02-26T01:32:37;9.35;;;3.70;;
72464;SDS011;60471;52.150;4.508;2024-02-26T01:35:03;8.70;;;3.35;;
72464;SDS011;60471;52.150;4.508;2024-02-26T01:37:30;10.52;;;3.60;;
72464;SDS011;60471;52.150;4.508;2024-02-26T01:39:57;9.63;;;3.72;;
72464;SDS011;60471;52.150;4.508;2024-02-26T01:42:23;10.13;;;3.70;;
72464;SDS011;60471;52.150;4.508;2024-02-26T01:44:49;10.43;;;3.70;;
72464;SDS011;60471;52.150;4.508;2024-02-26T01:47:15;8.98;;;3.90;;
72464;SDS011;60471;52.150;4.508;2024-02-26T01:49:41;10.00;;;4.25;;
72464;SDS011;60471;52.150;4.508;2024-02-26T01:52:08;9.63;;;3.83;;
72464;SDS011;60471;52.150;4.508;2024-02-26T01:54:36;10.27;;;3.97;;
72464;SDS011;60471;52.150;4.508;2024-02-26T01:57:05;12.00;;;4.82;;
72464;SDS011;60471;52.150;4.508;2024-02-26T01:59:34;9.82;;;4.30;;
72464;SDS011;60471;52.150;4.508;2024-02-26T02:02:01;13.20;;;4.93;;
72464;SDS011;60471;52.150;4.508;2024-02-26T02:04:32;10.43;;;4.77;;
72464;SDS011;60471;52.150;4.508;2024-02-26T02:07:00;11.43;;;4.55;;
72464;SDS011;60471;52.150;4.508;2024-02-26T02:09:27;11.77;;;5.20;;
72464;SDS011;60471;52.150;4.508;2024-02-26T02:11:54;11.25;;;5.50;;
72464;SDS011;60471;52.150;4.508;2024-02-26T02:14:21;17.13;;;5.35;;
72464;SDS011;60471;52.150;4.508;2024-02-26T02:16:47;12.98;;;5.20;;
72464;SDS011;60471;52.150;4.508;2024-02-26T02:19:14;11.20;;;4.80;;
72464;SDS011;60471;52.150;4.508;2024-02-26T02:21:40;11.70;;;4.88;;
72464;SDS011;60471;52.150;4.508;2024-02-26T02:24:06;12.05;;;5.10;;
72464;SDS011;60471;52.150;4.508;2024-02-26T02:26:32;14.05;;;4.75;;
72464;SDS011;60471;52.150;4.508;2024-02-26T02:28:59;11.10;;;5.03;;
72464;SDS011;60471;52.150;4.508;2024-02-26T02:31:27;9.80;;;3.90;;
72464;SDS011;60471;52.150;4.508;2024-02-26T02:33:53;9.60;;;4.28;;
72464;SDS011;60471;52.150;4.508;2024-02-26T02:36:19;11.25;;;4.10;;
72464;SDS011;60471;52.150;4.508;2024-02-26T02:38:49;9.90;;;4.32;;
72464;SDS011;60471;52.150;4.508;2024-02-26T02:41:16;9.43;;;3.92;;
72464;SDS011;60471;52.150;4.508;2024-02-26T02:43:43;11.68;;;3.47;;
72464;SDS011;60471;52.150;4.508;2024-02-26T02:46:10;8.38;;;3.45;;
72464;SDS011;60471;52.150;4.508;2024-02-26T02:48:41;10.25;;;3.55;;
72464;SDS011;60471;52.150;4.508;2024-02-26T02:51:08;9.25;;;3.63;;
72464;SDS011;60471;52.150;4.508;2024-02-26T02:53:35;10.30;;;4.05;;
72464;SDS011;60471;52.150;4.508;2024-02-26T02:56:01;10.15;;;4.05;;
72464;SDS011;60471;52.150;4.508;2024-02-26T02:58:27;10.18;;;3.88;;
72464;SDS011;60471;52.150;4.508;2024-02-26T03:00:54;9.35;;;3.33;;
72464;SDS011;60471;52.150;4.508;2024-02-26T03:03:21;9.32;;;3.70;;
72464;SDS011;60471;52.150;4.508;2024-02-26T03:05:49;10.60;;;3.45;;
72464;SDS011;60471;52.150;4.508;2024-02-26T03:08:16;9.05;;;3.63;;
72464;SDS011;60471;52.150;4.508;2024-02-26T03:10:42;9.43;;;3.50;;
72464;SDS011;60471;52.150;4.508;2024-02-26T03:13:09;13.25;;;4.13;;
72464;SDS011;60471;52.150;4.508;2024-02-26T03:15:35;10.32;;;3.80;;
72464;SDS011;60471;52.150;4.508;2024-02-26T03:18:01;17.95;;;5.10;;
72464;SDS011;60471;52.150;4.508;2024-02-26T03:20:27;11.35;;;4.80;;
72464;SDS011;60471;52.150;4.508;2024-02-26T03:22:54;10.32;;;4.88;;
72464;SDS011;60471;52.150;4.508;2024-02-26T03:25:20;12.27;;;5.07;;
72464;SDS011;60471;52.150;4.508;2024-02-26T03:27:46;10.93;;;4.63;;
72464;SDS011;60471;52.150;4.508;2024-02-26T03:30:12;11.18;;;4.38;;
72464;SDS011;60471;52.150;4.508;2024-02-26T03:32:39;12.15;;;5.10;;
72464;SDS011;60471;52.150;4.508;2024-02-26T03:35:05;10.57;;;4.40;;
72464;SDS011;60471;52.150;4.508;2024-02-26T03:37:33;15.35;;;5.75;;
72464;SDS011;60471;52.150;4.508;2024-02-26T03:39:59;14.00;;;5.18;;
72464;SDS011;60471;52.150;4.508;2024-02-26T03:42:26;12.38;;;5.32;;
72464;SDS011;60471;52.150;4.508;2024-02-26T03:44:53;14.27;;;5.57;;
72464;SDS011;60471;52.150;4.508;2024-02-26T03:47:19;11.98;;;5.47;;
72464;SDS011;60471;52.150;4.508;2024-02-26T03:49:45;14.00;;;4.93;;
72464;SDS011;60471;52.150;4.508;2024-02-26T03:52:11;13.15;;;5.47;;
72464;SDS011;60471;52.150;4.508;2024-02-26T03:54:37;13.13;;;5.03;;
72464;SDS011;60471;52.150;4.508;2024-02-26T03:57:04;11.73;;;5.30;;
72464;SDS011;60471;52.150;4.508;2024-02-26T03:59:30;16.45;;;5.57;;
72464;SDS011;60471;52.150;4.508;2024-02-26T04:01:56;13.82;;;6.20;;
72464;SDS011;60471;52.150;4.508;2024-02-26T04:04:22;15.68;;;5.78;;
72464;SDS011;60471;52.150;4.508;2024-02-26T04:06:49;12.88;;;5.47;;
72464;SDS011;60471;52.150;4.508;2024-02-26T04:09:15;13.15;;;5.53;;
72464;SDS011;60471;52.150;4.508;2024-02-26T04:11:41;13.38;;;5.78;;
72464;SDS011;60471;52.150;4.508;2024-02-26T04:14:10;14.43;;;6.10;;
72464;SDS011;60471;52.150;4.508;2024-02-26T04:16:38;14.73;;;6.18;;
72464;SDS011;60471;52.150;4.508;2024-02-26T04:19:04;12.52;;;5.32;;
72464;SDS011;60471;52.150;4.508;2024-02-26T04:21:30;12.93;;;5.57;;
72464;SDS011;60471;52.150;4.508;2024-02-26T04:23:57;13.40;;;5.43;;
72464;SDS011;60471;52.150;4.508;2024-02-26T04:26:26;14.55;;;6.03;;
72464;SDS011;60471;52.150;4.508;2024-02-26T04:28:53;15.77;;;6.80;;
72464;SDS011;60471;52.150;4.508;2024-02-26T04:31:20;15.75;;;6.60;;
72464;SDS011;60471;52.150;4.508;2024-02-26T04:33:46;16.48;;;6.70;;
72464;SDS011;60471;52.150;4.508;2024-02-26T04:36:15;15.23;;;6.47;;
72464;SDS011;60471;52.150;4.508;2024-02-26T04:38:42;14.60;;;6.30;;
72464;SDS011;60471;52.150;4.508;2024-02-26T04:41:09;15.68;;;6.55;;
72464;SDS011;60471;52.150;4.508;2024-02-26T04:43:36;18.02;;;7.07;;
72464;SDS011;60471;52.150;4.508;2024-02-26T04:46:07;16.65;;;7.25;;
72464;SDS011;60471;52.150;4.508;2024-02-26T04:48:34;16.05;;;7.05;;
72464;SDS011;60471;52.150;4.508;2024-02-26T04:51:02;16.83;;;7.07;;
72464;SDS011;60471;52.150;4.508;2024-02-26T04:53:29;14.63;;;6.20;;
72464;SDS011;60471;52.150;4.508;2024-02-26T04:55:55;14.57;;;5.85;;
72464;SDS011;60471;52.150;4.508;2024-02-26T04:58:21;16.38;;;6.82;;
72464;SDS011;60471;52.150;4.508;2024-02-26T05:00:47;16.90;;;7.15;;
72464;SDS011;60471;52.150;4.508;2024-02-26T05:03:14;16.40;;;6.93;;
72464;SDS011;60471;52.150;4.508;2024-02-26T05:05:42;15.05;;;6.50;;
72464;SDS011;60471;52.150;4.508;2024-02-26T05:08:09;15.43;;;6.35;;
72464;SDS011;60471;52.150;4.508;2024-02-26T05:10:36;15.63;;;6.85;;
72464;SDS011;60471;52.150;4.508;2024-02-26T05:13:06;18.20;;;7.03;;
72464;SDS011;60471;52.150;4.508;2024-02-26T05:15:33;16.23;;;6.50;;
72464;SDS011;60471;52.150;4.508;2024-02-26T05:17:59;18.38;;;6.78;;
72464;SDS011;60471;52.150;4.508;2024-02-26T05:20:25;18.50;;;7.20;;
72464;SDS011;60471;52.150;4.508;2024-02-26T05:22:51;18.30;;;6.72;;
72464;SDS011;60471;52.150;4.508;2024-02-26T05:25:18;18.75;;;6.60;;
72464;SDS011;60471;52.150;4.508;2024-02-26T05:27:44;17.98;;;7.47;;
72464;SDS011;60471;52.150;4.508;2024-02-26T05:30:11;18.13;;;7.13;;
72464;SDS011;60471;52.150;4.508;2024-02-26T05:32:38;19.73;;;7.50;;
72464;SDS011;60471;52.150;4.508;2024-02-26T05:35:04;20.52;;;8.45;;
72464;SDS011;60471;52.150;4.508;2024-02-26T05:37:31;15.75;;;6.78;;
72464;SDS011;60471;52.150;4.508;2024-02-26T05:39:57;21.45;;;8.40;;
72464;SDS011;60471;52.150;4.508;2024-02-26T05:42:24;20.90;;;8.07;;
72464;SDS011;60471;52.150;4.508;2024-02-26T05:44:50;19.48;;;7.20;;
72464;SDS011;60471;52.150;4.508;2024-02-26T05:47:17;24.58;;;10.48;;
72464;SDS011;60471;52.150;4.508;2024-02-26T05:49:43;19.15;;;8.93;;
72464;SDS011;60471;52.150;4.508;2024-02-26T05:52:09;18.33;;;8.05;;
72464;SDS011;60471;52.150;4.508;2024-02-26T05:54:35;20.00;;;8.50;;
72464;SDS011;60471;52.150;4.508;2024-02-26T05:57:02;19.38;;;8.65;;
72464;SDS011;60471;52.150;4.508;2024-02-26T05:59:28;17.17;;;6.85;;
72464;SDS011;60471;52.150;4.508;2024-02-26T06:01:55;21.25;;;8.85;;
72464;SDS011;60471;52.150;4.508;2024-02-26T06:04:21;21.17;;;8.70;;
72464;SDS011;60471;52.150;4.508;2024-02-26T06:06:47;17.80;;;8.25;;
72464;SDS011;60471;52.150;4.508;2024-02-26T06:09:13;21.95;;;8.80;;
72464;SDS011;60471;52.150;4.508;2024-02-26T06:11:39;26.52;;;10.57;;
72464;SDS011;60471;52.150;4.508;2024-02-26T06:14:06;17.92;;;8.40;;
72464;SDS011;60471;52.150;4.508;2024-02-26T06:16:32;20.27;;;9.23;;
72464;SDS011;60471;52.150;4.508;2024-02-26T06:18:59;25.02;;;10.70;;
72464;SDS011;60471;52.150;4.508;2024-02-26T06:21:26;17.33;;;7.28;;
72464;SDS011;60471;52.150;4.508;2024-02-26T06:23:52;27.67;;;10.48;;
72464;SDS011;60471;52.150;4.508;2024-02-26T06:26:18;20.88;;;9.05;;
72464;SDS011;60471;52.150;4.508;2024-02-26T06:28:44;22.88;;;9.52;;
72464;SDS011;60471;52.150;4.508;2024-02-26T06:31:10;23.83;;;9.88;;
72464;SDS011;60471;52.150;4.508;2024-02-26T06:33:37;21.65;;;9.88;;
72464;SDS011;60471;52.150;4.508;2024-02-26T06:36:03;16.88;;;7.05;;
72464;SDS011;60471;52.150;4.508;2024-02-26T06:38:30;19.80;;;8.52;;
72464;SDS011;60471;52.150;4.508;2024-02-26T06:40:56;22.48;;;10.05;;
72464;SDS011;60471;52.150;4.508;2024-02-26T06:43:22;21.73;;;10.63;;
72464;SDS011;60471;52.150;4.508;2024-02-26T06:45:49;22.02;;;8.98;;
72464;SDS011;60471;52.150;4.508;2024-02-26T06:48:15;20.50;;;9.48;;
72464;SDS011;60471;52.150;4.508;2024-02-26T06:50:41;18.40;;;8.10;;
72464;SDS011;60471;52.150;4.508;2024-02-26T06:53:07;20.80;;;9.75;;
72464;SDS011;60471;52.150;4.508;2024-02-26T06:55:34;17.88;;;7.20;;
72464;SDS011;60471;52.150;4.508;2024-02-26T06:58:00;17.00;;;7.50;;
72464;SDS011;60471;52.150;4.508;2024-02-26T07:00:26;18.67;;;7.60;;
72464;SDS011;60471;52.150;4.508;2024-02-26T07:02:52;24.30;;;9.95;;
72464;SDS011;60471;52.150;4.508;2024-02-26T07:05:18;19.65;;;8.27;;
72464;SDS011;60471;52.150;4.508;2024-02-26T07:07:45;15.85;;;7.78;;
72464;SDS011;60471;52.150;4.508;2024-02-26T07:10:11;16.98;;;6.93;;
72464;SDS011;60471;52.150;4.508;2024-02-26T07:12:38;16.10;;;7.45;;
72464;SDS011;60471;52.150;4.508;2024-02-26T07:15:05;19.35;;;8.00;;
72464;SDS011;60471;52.150;4.508;2024-02-26T07:17:33;17.25;;;6.60;;
72464;SDS011;60471;52.150;4.508;2024-02-26T07:20:02;17.38;;;8.63;;
72464;SDS011;60471;52.150;4.508;2024-02-26T07:22:30;19.13;;;7.45;;
72464;SDS011;60471;52.150;4.508;2024-02-26T07:24:56;16.17;;;6.82;;
72464;SDS011;60471;52.150;4.508;2024-02-26T07:27:23;18.60;;;6.63;;
72464;SDS011;60471;52.150;4.508;2024-02-26T07:29:49;16.15;;;7.13;;
72464;SDS011;60471;52.150;4.508;2024-02-26T07:32:15;11.75;;;5.13;;
72464;SDS011;60471;52.150;4.508;2024-02-26T07:34:41;15.23;;;6.47;;
72464;SDS011;60471;52.150;4.508;2024-02-26T07:37:10;14.77;;;6.30;;
72464;SDS011;60471;52.150;4.508;2024-02-26T07:39:37;13.85;;;5.80;;
72464;SDS011;60471;52.150;4.508;2024-02-26T07:42:03;19.52;;;6.57;;
72464;SDS011;60471;52.150;4.508;2024-02-26T07:44:30;13.95;;;6.07;;
72464;SDS011;60471;52.150;4.508;2024-02-26T07:46:56;13.40;;;5.82;;
72464;SDS011;60471;52.150;4.508;2024-02-26T07:49:22;11.82;;;4.35;;
72464;SDS011;60471;52.150;4.508;2024-02-26T07:51:48;15.38;;;6.13;;
72464;SDS011;60471;52.150;4.508;2024-02-26T07:54:15;11.95;;;5.10;;
72464;SDS011;60471;52.150;4.508;2024-02-26T07:56:42;11.55;;;4.50;;
72464;SDS011;60471;52.150;4.508;2024-02-26T07:59:08;13.85;;;5.05;;
72464;SDS011;60471;52.150;4.508;2024-02-26T08:01:35;10.98;;;4.53;;
72464;SDS011;60471;52.150;4.508;2024-02-26T08:04:04;9.60;;;3.92;;
72464;SDS011;60471;52.150;4.508;2024-02-26T08:06:30;12.75;;;4.63;;
72464;SDS011;60471;52.150;4.508;2024-02-26T08:08:57;11.68;;;4.90;;
72464;SDS011;60471;52.150;4.508;2024-02-26T08:11:23;11.57;;;4.07;;
72464;SDS011;60471;52.150;4.508;2024-02-26T08:13:49;13.85;;;4.07;;
72464;SDS011;60471;52.150;4.508;2024-02-26T08:16:15;10.68;;;4.43;;
72464;SDS011;60471;52.150;4.508;2024-02-26T08:18:41;10.40;;;3.97;;
72464;SDS011;60471;52.150;4.508;2024-02-26T08:21:08;8.93;;;3.25;;
72464;SDS011;60471;52.150;4.508;2024-02-26T08:23:34;12.30;;;3.95;;
72464;SDS011;60471;52.150;4.508;2024-02-26T08:26:00;8.70;;;3.42;;
72464;SDS011;60471;52.150;4.508;2024-02-26T08:28:26;11.43;;;3.50;;
72464;SDS011;60471;52.150;4.508;2024-02-26T08:30:53;11.07;;;4.03;;
72464;SDS011;60471;52.150;4.508;2024-02-26T08:33:19;11.02;;;3.90;;
72464;SDS011;60471;52.150;4.508;2024-02-26T08:35:45;11.32;;;4.70;;
72464;SDS011;60471;52.150;4.508;2024-02-26T08:38:11;12.18;;;3.45;;
72464;SDS011;60471;52.150;4.508;2024-02-26T08:40:37;8.35;;;3.42;;
72464;SDS011;60471;52.150;4.508;2024-02-26T08:43:04;9.88;;;3.42;;
72464;SDS011;60471;52.150;4.508;2024-02-26T08:45:30;19.17;;;4.47;;
72464;SDS011;60471;52.150;4.508;2024-02-26T08:47:56;8.63;;;3.35;;
72464;SDS011;60471;52.150;4.508;2024-02-26T08:50:24;12.23;;;4.07;;
72464;SDS011;60471;52.150;4.508;2024-02-26T08:52:50;10.25;;;3.70;;
72464;SDS011;60471;52.150;4.508;2024-02-26T08:55:16;8.50;;;3.60;;
72464;SDS011;60471;52.150;4.508;2024-02-26T08:57:43;10.80;;;3.92;;
72464;SDS011;60471;52.150;4.508;2024-02-26T09:00:09;10.00;;;3.80;;
72464;SDS011;60471;52.150;4.508;2024-02-26T09:02:37;9.70;;;3.40;;
72464;SDS011;60471;52.150;4.508;2024-02-26T09:05:06;11.50;;;3.80;;
72464;SDS011;60471;52.150;4.508;2024-02-26T09:07:32;11.60;;;4.28;;
72464;SDS011;60471;52.150;4.508;2024-02-26T09:09:59;10.35;;;4.20;;
72464;SDS011;60471;52.150;4.508;2024-02-26T09:12:25;8.80;;;3.20;;
72464;SDS011;60471;52.150;4.508;2024-02-26T09:14:51;9.70;;;3.20;;
72464;SDS011;60471;52.150;4.508;2024-02-26T09:17:18;8.30;;;3.15;;
72464;SDS011;60471;52.150;4.508;2024-02-26T09:19:44;11.35;;;3.65;;
72464;SDS011;60471;52.150;4.508;2024-02-26T09:22:10;12.20;;;3.05;;
72464;SDS011;60471;52.150;4.508;2024-02-26T09:24:38;8.80;;;3.10;;
72464;SDS011;60471;52.150;4.508;2024-02-26T09:27:04;10.50;;;3.67;;
72464;SDS011;60471;52.150;4.508;2024-02-26T09:29:30;9.85;;;3.38;;
72464;SDS011;60471;52.150;4.508;2024-02-26T09:31:57;11.88;;;3.42;;
72464;SDS011;60471;52.150;4.508;2024-02-26T09:34:23;8.05;;;2.83;;
72464;SDS011;60471;52.150;4.508;2024-02-26T09:36:49;10.88;;;3.28;;
72464;SDS011;60471;52.150;4.508;2024-02-26T09:39:15;9.10;;;2.90;;
72464;SDS011;60471;52.150;4.508;2024-02-26T09:41:47;12.55;;;3.05;;
72464;SDS011;60471;52.150;4.508;2024-02-26T09:44:15;9.35;;;3.05;;
72464;SDS011;60471;52.150;4.508;2024-02-26T09:46:49;9.90;;;2.92;;
72464;SDS011;60471;52.150;4.508;2024-02-26T09:49:21;9.15;;;2.78;;
72464;SDS011;60471;52.150;4.508;2024-02-26T09:54:19;8.77;;;3.72;;
72464;SDS011;60471;52.150;4.508;2024-02-26T09:56:46;8.10;;;3.03;;
72464;SDS011;60471;52.150;4.508;2024-02-26T09:59:16;8.60;;;2.88;;
72464;SDS011;60471;52.150;4.508;2024-02-26T10:01:44;9.25;;;3.35;;
72464;SDS011;60471;52.150;4.508;2024-02-26T10:04:12;9.68;;;3.15;;
72464;SDS011;60471;52.150;4.508;2024-02-26T10:06:38;8.55;;;3.33;;
72464;SDS011;60471;52.150;4.508;2024-02-26T10:09:05;7.65;;;2.80;;
72464;SDS011;60471;52.150;4.508;2024-02-26T10:11:35;9.32;;;2.78;;
72464;SDS011;60471;52.150;4.508;2024-02-26T10:14:04;10.80;;;3.28;;
72464;SDS011;60471;52.150;4.508;2024-02-26T10:16:30;8.70;;;2.90;;
72464;SDS011;60471;52.150;4.508;2024-02-26T10:18:57;8.57;;;2.95;;
72464;SDS011;60471;52.150;4.508;2024-02-26T10:21:24;7.72;;;2.70;;
72464;SDS011;60471;52.150;4.508;2024-02-26T10:23:50;9.20;;;2.95;;
72464;SDS011;60471;52.150;4.508;2024-02-26T10:26:16;8.18;;;3.28;;
72464;SDS011;60471;52.150;4.508;2024-02-26T10:28:43;9.77;;;2.65;;
72464;SDS011;60471;52.150;4.508;2024-02-26T10:31:11;11.93;;;2.92;;
72464;SDS011;60471;52.150;4.508;2024-02-26T10:33:40;7.50;;;2.65;;
72464;SDS011;60471;52.150;4.508;2024-02-26T10:36:08;10.23;;;2.80;;
72464;SDS011;60471;52.150;4.508;2024-02-26T10:38:35;11.40;;;3.35;;
72464;SDS011;60471;52.150;4.508;2024-02-26T10:41:03;13.05;;;3.45;;
72464;SDS011;60471;52.150;4.508;2024-02-26T10:43:32;8.30;;;2.83;;
72464;SDS011;60471;52.150;4.508;2024-02-26T10:45:58;10.75;;;3.40;;
72464;SDS011;60471;52.150;4.508;2024-02-26T10:48:24;7.13;;;2.72;;
72464;SDS011;60471;52.150;4.508;2024-02-26T10:50:51;9.80;;;2.90;;
72464;SDS011;60471;52.150;4.508;2024-02-26T10:53:21;8.60;;;2.72;;
72464;SDS011;60471;52.150;4.508;2024-02-26T10:55:52;8.40;;;2.83;;
72464;SDS011;60471;52.150;4.508;2024-02-26T10:58:24;8.95;;;2.65;;
72464;SDS011;60471;52.150;4.508;2024-02-26T11:00:51;11.88;;;2.97;;
72464;SDS011;60471;52.150;4.508;2024-02-26T11:03:18;10.57;;;2.80;;
72464;SDS011;60471;52.150;4.508;2024-02-26T11:05:47;8.18;;;2.30;;
72464;SDS011;60471;52.150;4.508;2024-02-26T11:08:21;7.15;;;2.85;;
72464;SDS011;60471;52.150;4.508;2024-02-26T11:10:52;12.95;;;2.75;;
72464;SDS011;60471;52.150;4.508;2024-02-26T11:13:19;8.45;;;2.88;;
72464;SDS011;60471;52.150;4.508;2024-02-26T11:15:47;8.15;;;2.70;;
72464;SDS011;60471;52.150;4.508;2024-02-26T11:18:15;8.02;;;2.80;;
72464;SDS011;60471;52.150;4.508;2024-02-26T11:20:42;8.77;;;3.20;;
72464;SDS011;60471;52.150;4.508;2024-02-26T11:23:11;8.10;;;2.75;;
72464;SDS011;60471;52.150;4.508;2024-02-26T11:25:38;9.73;;;2.92;;
72464;SDS011;60471;52.150;4.508;2024-02-26T11:28:11;10.38;;;2.60;;
72464;SDS011;60471;52.150;4.508;2024-02-26T11:30:43;7.10;;;2.00;;
72464;SDS011;60471;52.150;4.508;2024-02-26T11:33:14;9.00;;;3.17;;
72464;SDS011;60471;52.150;4.508;2024-02-26T11:35:41;7.53;;;2.60;;
72464;SDS011;60471;52.150;4.508;2024-02-26T11:38:08;7.60;;;2.70;;
72464;SDS011;60471;52.150;4.508;2024-02-26T11:40:43;8.20;;;2.75;;
72464;SDS011;60471;52.150;4.508;2024-02-26T11:43:10;5.68;;;2.00;;
72464;SDS011;60471;52.150;4.508;2024-02-26T11:48:12;6.47;;;1.88;;
72464;SDS011;60471;52.150;4.508;2024-02-26T11:50:39;8.98;;;3.28;;
72464;SDS011;60471;52.150;4.508;2024-02-26T11:58:44;9.35;;;2.70;;
72464;SDS011;60471;52.150;4.508;2024-02-26T12:04:24;7.72;;;2.67;;
72464;SDS011;60471;52.150;4.508;2024-02-26T12:06:57;7.78;;;2.08;;
72464;SDS011;60471;52.150;4.508;2024-02-26T12:09:33;5.18;;;2.05;;
72464;SDS011;60471;52.150;4.508;2024-02-26T12:12:07;5.75;;;2.10;;
72464;SDS011;60471;52.150;4.508;2024-02-26T12:14:51;5.07;;;1.48;;
72464;SDS011;60471;52.150;4.508;2024-02-26T12:17:22;7.35;;;2.20;;
72464;SDS011;60471;52.150;4.508;2024-02-26T12:19:51;6.47;;;1.90;;
72464;SDS011;60471;52.150;4.508;2024-02-26T12:22:19;6.07;;;1.80;;
72464;SDS011;60471;52.150;4.508;2024-02-26T12:24:45;5.55;;;1.88;;
72464;SDS011;60471;52.150;4.508;2024-02-26T12:27:12;8.65;;;2.35;;
72464;SDS011;60471;52.150;4.508;2024-02-26T12:29:39;6.85;;;2.10;;
72464;SDS011;60471;52.150;4.508;2024-02-26T12:32:05;8.93;;;2.38;;
72464;SDS011;60471;52.150;4.508;2024-02-26T12:34:32;6.60;;;2.33;;
72464;SDS011;60471;52.150;4.508;2024-02-26T12:36:59;6.88;;;1.92;;
72464;SDS011;60471;52.150;4.508;2024-02-26T12:39:25;12.73;;;2.58;;
72464;SDS011;60471;52.150;4.508;2024-02-26T12:41:51;6.53;;;1.83;;
72464;SDS011;60471;52.150;4.508;2024-02-26T12:44:18;5.72;;;1.58;;
72464;SDS011;60471;52.150;4.508;2024-02-26T12:46:50;6.68;;;2.10;;
72464;SDS011;60471;52.150;4.508;2024-02-26T12:49:17;7.82;;;2.30;;
72464;SDS011;60471;52.150;4.508;2024-02-26T12:51:44;7.45;;;2.20;;
72464;SDS011;60471;52.150;4.508;2024-02-26T12:54:11;8.25;;;2.30;;
72464;SDS011;60471;52.150;4.508;2024-02-26T12:56:39;6.50;;;2.08;;
72464;SDS011;60471;52.150;4.508;2024-02-26T12:59:05;9.75;;;2.40;;
72464;SDS011;60471;52.150;4.508;2024-02-26T13:01:32;9.38;;;2.63;;
72464;SDS011;60471;52.150;4.508;2024-02-26T13:03:58;6.78;;;1.80;;
72464;SDS011;60471;52.150;4.508;2024-02-26T13:06:26;7.25;;;2.08;;
72464;SDS011;60471;52.150;4.508;2024-02-26T13:08:56;6.72;;;1.92;;
72464;SDS011;60471;52.150;4.508;2024-02-26T13:11:27;11.00;;;2.30;;
72464;SDS011;60471;52.150;4.508;2024-02-26T13:13:55;8.90;;;2.30;;
72464;SDS011;60471;52.150;4.508;2024-02-26T13:16:24;7.40;;;2.25;;
72464;SDS011;60471;52.150;4.508;2024-02-26T13:18:51;6.28;;;1.90;;
72464;SDS011;60471;52.150;4.508;2024-02-26T13:21:18;8.50;;;2.25;;
72464;SDS011;60471;52.150;4.508;2024-02-26T13:23:48;6.85;;;2.25;;
72464;SDS011;60471;52.150;4.508;2024-02-26T13:26:18;7.63;;;1.95;;
72464;SDS011;60471;52.150;4.508;2024-02-26T13:28:58;8.80;;;2.03;;
72464;SDS011;60471;52.150;4.508;2024-02-26T13:31:29;7.10;;;2.30;;
72464;SDS011;60471;52.150;4.508;2024-02-26T13:33:55;7.47;;;2.42;;
72464;SDS011;60471;52.150;4.508;2024-02-26T13:36:24;8.50;;;2.20;;
72464;SDS011;60471;52.150;4.508;2024-02-26T13:38:51;7.30;;;1.92;;
72464;SDS011;60471;52.150;4.508;2024-02-26T13:41:20;7.05;;;2.25;;
72464;SDS011;60471;52.150;4.508;2024-02-26T13:43:48;5.50;;;1.60;;
72464;SDS011;60471;52.150;4.508;2024-02-26T13:46:14;7.53;;;2.15;;
72464;SDS011;60471;52.150;4.508;2024-02-26T13:48:41;7.03;;;2.05;;
72464;SDS011;60471;52.150;4.508;2024-02-26T13:51:08;8.38;;;1.70;;
72464;SDS011;60471;52.150;4.508;2024-02-26T13:53:34;5.60;;;1.98;;
72464;SDS011;60471;52.150;4.508;2024-02-26T13:56:01;8.00;;;2.33;;
72464;SDS011;60471;52.150;4.508;2024-02-26T13:58:29;8.15;;;1.90;;
72464;SDS011;60471;52.150;4.508;2024-02-26T14:00:56;7.30;;;2.00;;
72464;SDS011;60471;52.150;4.508;2024-02-26T14:03:22;5.32;;;1.80;;
72464;SDS011;60471;52.150;4.508;2024-02-26T14:05:48;9.85;;;1.70;;
72464;SDS011;60471;52.150;4.508;2024-02-26T14:08:14;5.97;;;1.65;;
72464;SDS011;60471;52.150;4.508;2024-02-26T14:10:41;5.72;;;1.90;;
72464;SDS011;60471;52.150;4.508;2024-02-26T14:13:07;7.10;;;1.80;;
72464;SDS011;60471;52.150;4.508;2024-02-26T14:15:33;5.57;;;2.10;;
72464;SDS011;60471;52.150;4.508;2024-02-26T14:18:01;7.05;;;2.10;;
72464;SDS011;60471;52.150;4.508;2024-02-26T14:20:29;7.53;;;2.00;;
72464;SDS011;60471;52.150;4.508;2024-02-26T14:22:55;8.40;;;2.08;;
72464;SDS011;60471;52.150;4.508;2024-02-26T14:25:22;5.88;;;2.00;;
72464;SDS011;60471;52.150;4.508;2024-02-26T14:27:48;7.47;;;2.22;;
72464;SDS011;60471;52.150;4.508;2024-02-26T14:30:14;9.15;;;2.20;;
72464;SDS011;60471;52.150;4.508;2024-02-26T14:32:41;7.85;;;1.98;;
72464;SDS011;60471;52.150;4.508;2024-02-26T14:35:08;6.35;;;2.35;;
72464;SDS011;60471;52.150;4.508;2024-02-26T14:37:37;9.18;;;2.58;;
72464;SDS011;60471;52.150;4.508;2024-02-26T14:40:03;9.10;;;2.55;;
72464;SDS011;60471;52.150;4.508;2024-02-26T14:42:31;7.35;;;2.20;;
72464;SDS011;60471;52.150;4.508;2024-02-26T14:44:57;10.15;;;2.85;;
72464;SDS011;60471;52.150;4.508;2024-02-26T14:47:23;10.40;;;2.50;;
72464;SDS011;60471;52.150;4.508;2024-02-26T14:49:49;7.45;;;2.10;;
72464;SDS011;60471;52.150;4.508;2024-02-26T14:52:17;8.77;;;2.25;;
72464;SDS011;60471;52.150;4.508;2024-02-26T14:54:44;5.47;;;1.95;;